This is the latest recevied weather packets stored in our database for station/object N7FEQ. If no packets are shown the sender has not sent any weather packets the latest 10 day(s).
| Time | Temp. | Humidity | Pressure | Rain* | Wind** | Luminosity | Snow |
|---|---|---|---|---|---|---|---|
| 1777498028 | 20° C | 23% | 1018.6 hPa | 0 mm | - | - | - |
| 1777494321 | 20.56° C | 25% | 1019 hPa | 0 mm | - | - | - |
| 1777493696 | 20° C | 26% | 1019.3 hPa | 0 mm | - | - | - |
| 1777493077 | 19.44° C | 26% | 1019.4 hPa | 0 mm | - | - | - |
| 1777487495 | 18.33° C | 28% | 1020.7 hPa | 0 mm | - | - | - |
| 1777477654 | 10.56° C | 55% | 1021.6 hPa | 0 mm | - | - | - |
| 1777471539 | 5° C | 67% | 1021.6 hPa | 0 mm | - | - | - |
| 1777469060 | 3.33° C | 73% | 1021.2 hPa | 0 mm | - | - | - |
| 1777467199 | 2.78° C | 71% | 1021.1 hPa | 0 mm | - | - | - |
| 1777465338 | 3.33° C | 68% | 1021.1 hPa | 0 mm | - | - | - |
| 1777462858 | 5° C | 63% | 1021 hPa | 0 mm | - | - | - |
| 1777460377 | 4.44° C | 67% | 1020.9 hPa | 0 mm | - | - | - |
| 1777457898 | 5° C | 62% | 1020.8 hPa | 0 mm | - | - | - |
| 1777454805 | 6.11° C | 61% | 1020.8 hPa | 0 mm | - | - | - |
| 1777451738 | 6.11° C | 63% | 1021.1 hPa | 0 mm | - | - | - |
| 1777447472 | 7.22° C | 61% | 1021.2 hPa | 0 mm | - | - | - |
| 1777440080 | 8.89° C | 56% | 1021 hPa | 0 mm | - | - | - |
| 1777438245 | 9.44° C | 54% | 1020.8 hPa | 0 mm | - | - | - |
| 1777435181 | 10° C | 49% | 1020.4 hPa | 0 mm | - | - | - |
| 1777433964 | 10.56° C | 48% | 1020.2 hPa | 0 mm | - | - | - |
| 1777430879 | 12.22° C | 44% | 1019.5 hPa | 0 mm | - | - | - |
| 1777430259 | 12.78° C | 42% | 1019.4 hPa | 0 mm | - | - | - |
| 1777429640 | 12.78° C | 40% | 1019.1 hPa | 0 mm | - | - | - |
| 1777428399 | 13.33° C | 40% | 1018.9 hPa | 0 mm | - | - | - |
| 1777426539 | 13.89° C | 38% | 1018.9 hPa | 0 mm | - | - | - |
* Rain latest hour (hover to see other rain measurements)
** Current wind speed in m/s (hover to see current wind gust speed)